sensor_id;sensor_type;location;lat;lon;timestamp;temperature;humidity
11540;DHT22;5826;54.756;9.192;2023-07-13T00:01:14;17.10;99.90
11540;DHT22;5826;54.756;9.192;2023-07-13T00:03:39;17.00;99.90
11540;DHT22;5826;54.756;9.192;2023-07-13T00:06:06;17.00;99.90
11540;DHT22;5826;54.756;9.192;2023-07-13T00:08:33;17.00;99.90
11540;DHT22;5826;54.756;9.192;2023-07-13T00:11:02;17.00;99.90
11540;DHT22;5826;54.756;9.192;2023-07-13T00:13:28;16.90;99.90
11540;DHT22;5826;54.756;9.192;2023-07-13T00:15:55;17.00;99.90
11540;DHT22;5826;54.756;9.192;2023-07-13T00:18:21;16.90;99.90
11540;DHT22;5826;54.756;9.192;2023-07-13T00:20:48;16.90;99.90
11540;DHT22;5826;54.756;9.192;2023-07-13T00:23:15;16.90;99.90
11540;DHT22;5826;54.756;9.192;2023-07-13T00:25:42;16.90;99.90
11540;DHT22;5826;54.756;9.192;2023-07-13T00:28:08;17.00;99.90
11540;DHT22;5826;54.756;9.192;2023-07-13T00:30:33;17.00;99.90
11540;DHT22;5826;54.756;9.192;2023-07-13T00:32:59;16.90;99.90
11540;DHT22;5826;54.756;9.192;2023-07-13T00:35:26;16.90;99.90
11540;DHT22;5826;54.756;9.192;2023-07-13T00:37:52;16.90;99.90
11540;DHT22;5826;54.756;9.192;2023-07-13T00:40:18;16.90;99.90
11540;DHT22;5826;54.756;9.192;2023-07-13T00:42:44;16.90;99.90
11540;DHT22;5826;54.756;9.192;2023-07-13T00:47:40;16.80;99.90
11540;DHT22;5826;54.756;9.192;2023-07-13T00:50:08;16.90;99.90
11540;DHT22;5826;54.756;9.192;2023-07-13T00:52:36;16.90;99.90
11540;DHT22;5826;54.756;9.192;2023-07-13T00:55:03;16.90;99.90
11540;DHT22;5826;54.756;9.192;2023-07-13T00:57:28;16.90;99.90
11540;DHT22;5826;54.756;9.192;2023-07-13T00:59:58;16.90;99.90
11540;DHT22;5826;54.756;9.192;2023-07-13T01:02:25;16.90;99.90
11540;DHT22;5826;54.756;9.192;2023-07-13T01:04:51;16.90;99.90
11540;DHT22;5826;54.756;9.192;2023-07-13T01:07:18;16.90;99.90
11540;DHT22;5826;54.756;9.192;2023-07-13T01:09:44;16.90;99.90
11540;DHT22;5826;54.756;9.192;2023-07-13T01:12:10;16.90;99.90
11540;DHT22;5826;54.756;9.192;2023-07-13T01:14:36;16.90;99.90
11540;DHT22;5826;54.756;9.192;2023-07-13T01:17:02;16.90;99.90
11540;DHT22;5826;54.756;9.192;2023-07-13T01:19:45;17.00;99.90
11540;DHT22;5826;54.756;9.192;2023-07-13T01:22:13;17.40;99.90
11540;DHT22;5826;54.756;9.192;2023-07-13T01:24:42;17.00;99.90
11540;DHT22;5826;54.756;9.192;2023-07-13T01:27:10;17.10;99.90
11540;DHT22;5826;54.756;9.192;2023-07-13T01:29:38;17.10;99.90
11540;DHT22;5826;54.756;9.192;2023-07-13T01:32:09;17.20;99.90
11540;DHT22;5826;54.756;9.192;2023-07-13T01:34:35;17.20;99.90
11540;DHT22;5826;54.756;9.192;2023-07-13T01:37:00;17.20;99.90
11540;DHT22;5826;54.756;9.192;2023-07-13T01:39:26;17.20;99.90
11540;DHT22;5826;54.756;9.192;2023-07-13T01:41:51;17.20;99.90
11540;DHT22;5826;54.756;9.192;2023-07-13T01:44:17;17.20;99.90
11540;DHT22;5826;54.756;9.192;2023-07-13T01:46:42;17.20;99.90
11540;DHT22;5826;54.756;9.192;2023-07-13T01:49:08;17.10;99.90
11540;DHT22;5826;54.756;9.192;2023-07-13T01:51:33;17.10;99.90
11540;DHT22;5826;54.756;9.192;2023-07-13T01:53:59;17.10;99.90
11540;DHT22;5826;54.756;9.192;2023-07-13T01:56:24;17.10;99.90
11540;DHT22;5826;54.756;9.192;2023-07-13T01:58:50;17.10;99.90
11540;DHT22;5826;54.756;9.192;2023-07-13T02:01:17;17.10;99.90
11540;DHT22;5826;54.756;9.192;2023-07-13T02:03:42;17.10;99.90
11540;DHT22;5826;54.756;9.192;2023-07-13T02:06:08;17.10;99.90
11540;DHT22;5826;54.756;9.192;2023-07-13T02:08:33;17.10;99.90
11540;DHT22;5826;54.756;9.192;2023-07-13T02:10:59;17.10;99.90
11540;DHT22;5826;54.756;9.192;2023-07-13T02:13:25;17.10;99.90
11540;DHT22;5826;54.756;9.192;2023-07-13T02:15:51;17.00;99.90
11540;DHT22;5826;54.756;9.192;2023-07-13T02:18:17;17.10;99.90
11540;DHT22;5826;54.756;9.192;2023-07-13T02:20:43;17.10;99.90
11540;DHT22;5826;54.756;9.192;2023-07-13T02:23:09;17.10;99.90
11540;DHT22;5826;54.756;9.192;2023-07-13T02:25:34;17.10;99.90
11540;DHT22;5826;54.756;9.192;2023-07-13T02:28:00;17.10;99.90
11540;DHT22;5826;54.756;9.192;2023-07-13T02:30:26;17.10;99.90
11540;DHT22;5826;54.756;9.192;2023-07-13T02:32:51;17.10;99.90
11540;DHT22;5826;54.756;9.192;2023-07-13T02:35:17;17.10;99.90
11540;DHT22;5826;54.756;9.192;2023-07-13T02:37:42;17.10;99.90
11540;DHT22;5826;54.756;9.192;2023-07-13T02:40:08;17.10;99.90
11540;DHT22;5826;54.756;9.192;2023-07-13T02:42:34;17.10;99.90
11540;DHT22;5826;54.756;9.192;2023-07-13T02:45:00;17.10;99.90
11540;DHT22;5826;54.756;9.192;2023-07-13T02:47:26;17.10;99.90
11540;DHT22;5826;54.756;9.192;2023-07-13T02:49:52;17.20;99.90
11540;DHT22;5826;54.756;9.192;2023-07-13T02:52:17;17.10;99.90
11540;DHT22;5826;54.756;9.192;2023-07-13T02:54:43;17.10;99.90
11540;DHT22;5826;54.756;9.192;2023-07-13T02:57:08;17.00;99.90
11540;DHT22;5826;54.756;9.192;2023-07-13T02:59:34;17.00;99.90
11540;DHT22;5826;54.756;9.192;2023-07-13T03:02:01;17.00;99.90
11540;DHT22;5826;54.756;9.192;2023-07-13T03:04:27;16.90;99.90
11540;DHT22;5826;54.756;9.192;2023-07-13T03:06:52;16.90;99.90
11540;DHT22;5826;54.756;9.192;2023-07-13T03:09:18;16.90;99.90
11540;DHT22;5826;54.756;9.192;2023-07-13T03:11:44;16.90;99.90
11540;DHT22;5826;54.756;9.192;2023-07-13T03:14:09;16.90;99.90
11540;DHT22;5826;54.756;9.192;2023-07-13T03:16:35;17.00;99.90
11540;DHT22;5826;54.756;9.192;2023-07-13T03:19:00;16.90;99.90
11540;DHT22;5826;54.756;9.192;2023-07-13T03:21:26;16.90;99.90
11540;DHT22;5826;54.756;9.192;2023-07-13T03:23:51;16.90;99.90
11540;DHT22;5826;54.756;9.192;2023-07-13T03:26:19;16.90;99.90
11540;DHT22;5826;54.756;9.192;2023-07-13T03:28:46;16.90;99.90
11540;DHT22;5826;54.756;9.192;2023-07-13T03:31:15;16.90;99.90
11540;DHT22;5826;54.756;9.192;2023-07-13T03:33:41;17.00;99.90
11540;DHT22;5826;54.756;9.192;2023-07-13T03:36:10;17.00;99.90
11540;DHT22;5826;54.756;9.192;2023-07-13T03:38:36;17.00;99.90
11540;DHT22;5826;54.756;9.192;2023-07-13T03:41:01;17.00;99.90
11540;DHT22;5826;54.756;9.192;2023-07-13T03:43:27;17.10;99.90
11540;DHT22;5826;54.756;9.192;2023-07-13T03:45:52;16.90;99.90
11540;DHT22;5826;54.756;9.192;2023-07-13T03:48:18;16.90;99.90
11540;DHT22;5826;54.756;9.192;2023-07-13T03:50:43;16.70;99.90
11540;DHT22;5826;54.756;9.192;2023-07-13T03:53:09;16.80;99.90
11540;DHT22;5826;54.756;9.192;2023-07-13T03:55:35;16.70;99.90
11540;DHT22;5826;54.756;9.192;2023-07-13T03:58:39;16.70;99.90
11540;DHT22;5826;54.756;9.192;2023-07-13T04:01:07;16.70;99.90
11540;DHT22;5826;54.756;9.192;2023-07-13T04:03:34;16.60;99.90
11540;DHT22;5826;54.756;9.192;2023-07-13T04:06:02;16.60;99.90
11540;DHT22;5826;54.756;9.192;2023-07-13T04:08:29;16.60;99.90
11540;DHT22;5826;54.756;9.192;2023-07-13T04:10:56;16.50;99.90
11540;DHT22;5826;54.756;9.192;2023-07-13T04:13:22;16.80;99.90
11540;DHT22;5826;54.756;9.192;2023-07-13T04:15:48;16.50;99.90
11540;DHT22;5826;54.756;9.192;2023-07-13T04:18:13;16.50;99.90
11540;DHT22;5826;54.756;9.192;2023-07-13T04:20:39;16.50;99.90
11540;DHT22;5826;54.756;9.192;2023-07-13T04:23:04;16.50;99.90
11540;DHT22;5826;54.756;9.192;2023-07-13T04:25:30;16.50;99.90
11540;DHT22;5826;54.756;9.192;2023-07-13T04:27:55;16.50;99.90
11540;DHT22;5826;54.756;9.192;2023-07-13T04:30:21;16.50;99.90
11540;DHT22;5826;54.756;9.192;2023-07-13T04:32:48;16.40;99.90
11540;DHT22;5826;54.756;9.192;2023-07-13T04:35:13;16.40;99.90
11540;DHT22;5826;54.756;9.192;2023-07-13T04:37:40;16.30;99.90
11540;DHT22;5826;54.756;9.192;2023-07-13T04:40:06;16.30;99.90
11540;DHT22;5826;54.756;9.192;2023-07-13T04:42:32;16.10;99.90
11540;DHT22;5826;54.756;9.192;2023-07-13T04:44:59;16.00;99.90
11540;DHT22;5826;54.756;9.192;2023-07-13T04:47:25;16.00;99.90
11540;DHT22;5826;54.756;9.192;2023-07-13T04:49:50;15.90;99.90
11540;DHT22;5826;54.756;9.192;2023-07-13T04:52:16;15.80;99.90
11540;DHT22;5826;54.756;9.192;2023-07-13T04:54:41;15.90;99.90
11540;DHT22;5826;54.756;9.192;2023-07-13T04:57:07;15.90;99.90
11540;DHT22;5826;54.756;9.192;2023-07-13T04:59:33;15.90;99.90
11540;DHT22;5826;54.756;9.192;2023-07-13T05:01:59;15.90;99.90
11540;DHT22;5826;54.756;9.192;2023-07-13T05:04:25;16.00;99.90
11540;DHT22;5826;54.756;9.192;2023-07-13T05:06:50;16.00;99.90
11540;DHT22;5826;54.756;9.192;2023-07-13T05:09:16;16.10;99.90
11540;DHT22;5826;54.756;9.192;2023-07-13T05:11:43;16.10;99.90
11540;DHT22;5826;54.756;9.192;2023-07-13T05:14:09;16.10;99.90
11540;DHT22;5826;54.756;9.192;2023-07-13T05:16:35;16.20;99.90
11540;DHT22;5826;54.756;9.192;2023-07-13T05:19:01;16.20;99.90
11540;DHT22;5826;54.756;9.192;2023-07-13T05:21:26;16.10;99.90
11540;DHT22;5826;54.756;9.192;2023-07-13T05:23:52;16.20;99.90
11540;DHT22;5826;54.756;9.192;2023-07-13T05:26:17;16.20;99.90
11540;DHT22;5826;54.756;9.192;2023-07-13T05:28:44;16.30;99.90
11540;DHT22;5826;54.756;9.192;2023-07-13T05:31:10;16.30;99.90
11540;DHT22;5826;54.756;9.192;2023-07-13T05:33:35;16.40;99.90
11540;DHT22;5826;54.756;9.192;2023-07-13T05:36:01;16.40;99.90
11540;DHT22;5826;54.756;9.192;2023-07-13T05:38:27;16.40;99.90
11540;DHT22;5826;54.756;9.192;2023-07-13T05:40:54;16.40;99.90
11540;DHT22;5826;54.756;9.192;2023-07-13T05:43:21;16.40;99.90
11540;DHT22;5826;54.756;9.192;2023-07-13T05:45:48;16.50;99.90
11540;DHT22;5826;54.756;9.192;2023-07-13T05:48:14;16.50;99.90
11540;DHT22;5826;54.756;9.192;2023-07-13T05:50:40;16.50;99.90
11540;DHT22;5826;54.756;9.192;2023-07-13T05:53:05;16.50;99.90
11540;DHT22;5826;54.756;9.192;2023-07-13T05:55:31;16.40;99.90
11540;DHT22;5826;54.756;9.192;2023-07-13T05:57:57;16.40;99.90
11540;DHT22;5826;54.756;9.192;2023-07-13T06:00:24;16.60;99.90
11540;DHT22;5826;54.756;9.192;2023-07-13T06:02:49;16.50;99.90
11540;DHT22;5826;54.756;9.192;2023-07-13T06:05:15;16.50;99.90
11540;DHT22;5826;54.756;9.192;2023-07-13T06:07:41;16.50;99.90
11540;DHT22;5826;54.756;9.192;2023-07-13T06:10:07;16.50;99.90
11540;DHT22;5826;54.756;9.192;2023-07-13T06:12:33;16.50;99.90
11540;DHT22;5826;54.756;9.192;2023-07-13T06:14:58;16.50;99.90
11540;DHT22;5826;54.756;9.192;2023-07-13T06:17:24;16.50;99.90
11540;DHT22;5826;54.756;9.192;2023-07-13T06:19:49;16.50;99.90
11540;DHT22;5826;54.756;9.192;2023-07-13T06:22:15;16.50;99.90
11540;DHT22;5826;54.756;9.192;2023-07-13T06:24:40;16.50;99.90
11540;DHT22;5826;54.756;9.192;2023-07-13T06:27:06;17.30;99.90
11540;DHT22;5826;54.756;9.192;2023-07-13T06:29:31;16.50;99.90
11540;DHT22;5826;54.756;9.192;2023-07-13T06:31:57;16.50;99.90
11540;DHT22;5826;54.756;9.192;2023-07-13T06:34:23;16.50;99.90
11540;DHT22;5826;54.756;9.192;2023-07-13T06:36:48;16.50;99.90
11540;DHT22;5826;54.756;9.192;2023-07-13T06:39:14;16.60;99.90
11540;DHT22;5826;54.756;9.192;2023-07-13T06:41:39;16.60;99.90
11540;DHT22;5826;54.756;9.192;2023-07-13T06:44:05;16.70;99.90
11540;DHT22;5826;54.756;9.192;2023-07-13T06:46:31;16.80;99.90
11540;DHT22;5826;54.756;9.192;2023-07-13T06:48:57;16.90;99.90
11540;DHT22;5826;54.756;9.192;2023-07-13T06:51:22;17.10;99.90
11540;DHT22;5826;54.756;9.192;2023-07-13T06:53:48;17.30;99.90
11540;DHT22;5826;54.756;9.192;2023-07-13T06:56:15;17.50;99.90
11540;DHT22;5826;54.756;9.192;2023-07-13T06:58:41;17.70;99.90
11540;DHT22;5826;54.756;9.192;2023-07-13T07:01:06;17.90;99.90
11540;DHT22;5826;54.756;9.192;2023-07-13T07:03:32;18.10;99.90
11540;DHT22;5826;54.756;9.192;2023-07-13T07:06:18;18.20;99.90
11540;DHT22;5826;54.756;9.192;2023-07-13T07:08:44;18.30;99.90
11540;DHT22;5826;54.756;9.192;2023-07-13T07:11:16;18.40;99.90
11540;DHT22;5826;54.756;9.192;2023-07-13T07:13:41;18.40;99.90
11540;DHT22;5826;54.756;9.192;2023-07-13T07:16:07;18.40;99.90
11540;DHT22;5826;54.756;9.192;2023-07-13T07:18:34;18.30;99.90
11540;DHT22;5826;54.756;9.192;2023-07-13T07:21:00;18.30;99.90
11540;DHT22;5826;54.756;9.192;2023-07-13T07:23:25;18.40;99.90
11540;DHT22;5826;54.756;9.192;2023-07-13T07:25:51;18.40;99.90
11540;DHT22;5826;54.756;9.192;2023-07-13T07:28:18;18.50;99.90
11540;DHT22;5826;54.756;9.192;2023-07-13T07:30:47;18.50;99.90
11540;DHT22;5826;54.756;9.192;2023-07-13T07:33:13;18.60;99.90
11540;DHT22;5826;54.756;9.192;2023-07-13T07:35:39;18.60;99.90
11540;DHT22;5826;54.756;9.192;2023-07-13T07:38:04;18.50;99.90
11540;DHT22;5826;54.756;9.192;2023-07-13T07:40:30;18.50;99.90
11540;DHT22;5826;54.756;9.192;2023-07-13T07:42:56;18.40;99.90
11540;DHT22;5826;54.756;9.192;2023-07-13T07:45:22;18.30;99.90
11540;DHT22;5826;54.756;9.192;2023-07-13T07:47:47;18.10;99.90
11540;DHT22;5826;54.756;9.192;2023-07-13T07:50:13;18.20;99.90
11540;DHT22;5826;54.756;9.192;2023-07-13T07:52:39;18.20;99.90
11540;DHT22;5826;54.756;9.192;2023-07-13T07:55:06;18.40;99.90
11540;DHT22;5826;54.756;9.192;2023-07-13T07:57:32;18.40;99.90
11540;DHT22;5826;54.756;9.192;2023-07-13T07:59:57;18.50;99.90
11540;DHT22;5826;54.756;9.192;2023-07-13T08:02:24;18.60;99.90
11540;DHT22;5826;54.756;9.192;2023-07-13T08:04:50;18.70;99.90
11540;DHT22;5826;54.756;9.192;2023-07-13T08:07:16;18.80;99.90
11540;DHT22;5826;54.756;9.192;2023-07-13T08:09:41;18.70;99.90
11540;DHT22;5826;54.756;9.192;2023-07-13T08:12:07;18.70;99.90
11540;DHT22;5826;54.756;9.192;2023-07-13T08:14:33;18.80;99.90
11540;DHT22;5826;54.756;9.192;2023-07-13T08:16:59;18.90;99.90
11540;DHT22;5826;54.756;9.192;2023-07-13T08:19:24;19.00;99.90
11540;DHT22;5826;54.756;9.192;2023-07-13T08:21:49;19.20;99.90
11540;DHT22;5826;54.756;9.192;2023-07-13T08:24:15;19.40;99.90
11540;DHT22;5826;54.756;9.192;2023-07-13T08:26:44;19.50;99.90
11540;DHT22;5826;54.756;9.192;2023-07-13T08:29:09;19.50;99.90
11540;DHT22;5826;54.756;9.192;2023-07-13T08:31:35;19.60;99.90
11540;DHT22;5826;54.756;9.192;2023-07-13T08:34:00;19.70;99.90
11540;DHT22;5826;54.756;9.192;2023-07-13T08:36:26;19.80;99.90
11540;DHT22;5826;54.756;9.192;2023-07-13T08:38:52;19.80;99.90
11540;DHT22;5826;54.756;9.192;2023-07-13T08:41:18;19.90;99.90
11540;DHT22;5826;54.756;9.192;2023-07-13T08:43:50;19.90;99.90
11540;DHT22;5826;54.756;9.192;2023-07-13T08:46:38;19.90;99.90
11540;DHT22;5826;54.756;9.192;2023-07-13T08:49:11;19.80;99.90
11540;DHT22;5826;54.756;9.192;2023-07-13T08:51:55;20.00;99.90
11540;DHT22;5826;54.756;9.192;2023-07-13T08:54:28;20.20;99.90
11540;DHT22;5826;54.756;9.192;2023-07-13T08:56:55;20.30;99.90
11540;DHT22;5826;54.756;9.192;2023-07-13T08:59:25;20.30;99.90
11540;DHT22;5826;54.756;9.192;2023-07-13T09:02:26;20.70;99.90
11540;DHT22;5826;54.756;9.192;2023-07-13T09:05:02;20.50;99.90
11540;DHT22;5826;54.756;9.192;2023-07-13T09:12:43;20.60;99.90
11540;DHT22;5826;54.756;9.192;2023-07-13T09:15:36;20.40;99.90
11540;DHT22;5826;54.756;9.192;2023-07-13T09:20:54;19.60;99.90
11540;DHT22;5826;54.756;9.192;2023-07-13T09:23:23;19.60;99.90
11540;DHT22;5826;54.756;9.192;2023-07-13T09:25:52;18.90;99.90
11540;DHT22;5826;54.756;9.192;2023-07-13T09:28:24;18.60;99.90
11540;DHT22;5826;54.756;9.192;2023-07-13T09:31:01;18.40;99.90
11540;DHT22;5826;54.756;9.192;2023-07-13T09:33:28;18.30;99.90
11540;DHT22;5826;54.756;9.192;2023-07-13T09:35:57;18.20;99.90
11540;DHT22;5826;54.756;9.192;2023-07-13T09:38:25;18.10;99.90
11540;DHT22;5826;54.756;9.192;2023-07-13T09:41:19;18.10;99.90
11540;DHT22;5826;54.756;9.192;2023-07-13T09:44:13;18.20;99.90
11540;DHT22;5826;54.756;9.192;2023-07-13T09:46:47;18.20;99.90
11540;DHT22;5826;54.756;9.192;2023-07-13T09:49:17;18.20;99.90
11540;DHT22;5826;54.756;9.192;2023-07-13T09:51:43;18.30;99.90
11540;DHT22;5826;54.756;9.192;2023-07-13T09:54:20;18.40;99.90
11540;DHT22;5826;54.756;9.192;2023-07-13T09:56:46;18.60;99.90
11540;DHT22;5826;54.756;9.192;2023-07-13T09:59:22;18.90;99.90
11540;DHT22;5826;54.756;9.192;2023-07-13T10:01:49;19.10;99.90
11540;DHT22;5826;54.756;9.192;2023-07-13T10:04:18;19.20;99.90
11540;DHT22;5826;54.756;9.192;2023-07-13T10:06:45;19.60;99.90
11540;DHT22;5826;54.756;9.192;2023-07-13T10:09:15;19.20;99.90
11540;DHT22;5826;54.756;9.192;2023-07-13T10:11:41;19.20;99.90
11540;DHT22;5826;54.756;9.192;2023-07-13T10:14:17;19.10;99.90
11540;DHT22;5826;54.756;9.192;2023-07-13T10:16:46;19.50;99.90
11540;DHT22;5826;54.756;9.192;2023-07-13T10:19:22;19.10;99.90
11540;DHT22;5826;54.756;9.192;2023-07-13T10:21:52;19.30;99.90
11540;DHT22;5826;54.756;9.192;2023-07-13T10:24:26;19.50;99.90
11540;DHT22;5826;54.756;9.192;2023-07-13T10:27:12;19.70;99.90
11540;DHT22;5826;54.756;9.192;2023-07-13T10:29:46;20.10;99.90
11540;DHT22;5826;54.756;9.192;2023-07-13T10:32:13;20.30;99.90
11540;DHT22;5826;54.756;9.192;2023-07-13T10:34:41;20.60;99.90
11540;DHT22;5826;54.756;9.192;2023-07-13T10:37:17;20.70;99.90
11540;DHT22;5826;54.756;9.192;2023-07-13T10:39:45;20.70;99.90
11540;DHT22;5826;54.756;9.192;2023-07-13T10:42:27;20.70;99.90
11540;DHT22;5826;54.756;9.192;2023-07-13T10:44:53;20.80;99.90
11540;DHT22;5826;54.756;9.192;2023-07-13T10:47:19;20.80;99.90
11540;DHT22;5826;54.756;9.192;2023-07-13T10:49:45;21.00;99.90
11540;DHT22;5826;54.756;9.192;2023-07-13T10:55:40;21.30;99.90
11540;DHT22;5826;54.756;9.192;2023-07-13T10:58:19;21.40;99.90
11540;DHT22;5826;54.756;9.192;2023-07-13T11:03:16;21.40;99.90
11540;DHT22;5826;54.756;9.192;2023-07-13T11:05:42;21.50;99.90
11540;DHT22;5826;54.756;9.192;2023-07-13T11:10:56;21.70;99.90
11540;DHT22;5826;54.756;9.192;2023-07-13T11:16:34;21.70;99.90
11540;DHT22;5826;54.756;9.192;2023-07-13T11:21:31;22.10;99.90
11540;DHT22;5826;54.756;9.192;2023-07-13T11:29:31;22.40;99.90
11540;DHT22;5826;54.756;9.192;2023-07-13T11:32:00;22.30;99.90
11540;DHT22;5826;54.756;9.192;2023-07-13T11:34:31;22.20;99.90
11540;DHT22;5826;54.756;9.192;2023-07-13T11:37:00;22.10;99.90
11540;DHT22;5826;54.756;9.192;2023-07-13T11:39:35;21.80;99.90
11540;DHT22;5826;54.756;9.192;2023-07-13T11:42:08;21.70;99.90
11540;DHT22;5826;54.756;9.192;2023-07-13T11:44:42;21.70;99.90
11540;DHT22;5826;54.756;9.192;2023-07-13T11:47:11;21.70;99.90
11540;DHT22;5826;54.756;9.192;2023-07-13T11:49:43;21.60;99.90
11540;DHT22;5826;54.756;9.192;2023-07-13T11:52:15;21.40;99.90
11540;DHT22;5826;54.756;9.192;2023-07-13T11:54:50;21.10;99.90
11540;DHT22;5826;54.756;9.192;2023-07-13T11:57:31;21.10;99.90
11540;DHT22;5826;54.756;9.192;2023-07-13T12:00:00;20.90;99.90
11540;DHT22;5826;54.756;9.192;2023-07-13T12:02:30;20.90;99.90
11540;DHT22;5826;54.756;9.192;2023-07-13T12:04:57;20.90;99.90
11540;DHT22;5826;54.756;9.192;2023-07-13T12:07:23;21.00;99.90
11540;DHT22;5826;54.756;9.192;2023-07-13T12:09:49;21.10;99.90
11540;DHT22;5826;54.756;9.192;2023-07-13T12:12:21;21.10;99.90
11540;DHT22;5826;54.756;9.192;2023-07-13T12:14:53;21.10;99.90
11540;DHT22;5826;54.756;9.192;2023-07-13T12:17:22;21.20;99.90
11540;DHT22;5826;54.756;9.192;2023-07-13T12:19:50;21.20;99.90
11540;DHT22;5826;54.756;9.192;2023-07-13T12:22:17;21.30;99.90
11540;DHT22;5826;54.756;9.192;2023-07-13T12:24:44;21.10;99.90
11540;DHT22;5826;54.756;9.192;2023-07-13T12:27:22;21.00;99.90
11540;DHT22;5826;54.756;9.192;2023-07-13T12:30:32;21.00;99.90
11540;DHT22;5826;54.756;9.192;2023-07-13T12:32:39;20.70;99.90
11540;DHT22;5826;54.756;9.192;2023-07-13T12:35:16;20.20;99.90
11540;DHT22;5826;54.756;9.192;2023-07-13T12:37:43;19.90;99.90
11540;DHT22;5826;54.756;9.192;2023-07-13T12:40:16;19.60;99.90
11540;DHT22;5826;54.756;9.192;2023-07-13T12:42:49;19.40;99.90
11540;DHT22;5826;54.756;9.192;2023-07-13T12:45:22;19.70;99.90
11540;DHT22;5826;54.756;9.192;2023-07-13T12:47:52;19.20;99.90
11540;DHT22;5826;54.756;9.192;2023-07-13T12:50:21;19.10;99.90
11540;DHT22;5826;54.756;9.192;2023-07-13T12:52:52;19.00;99.90
11540;DHT22;5826;54.756;9.192;2023-07-13T12:55:20;19.00;99.90
11540;DHT22;5826;54.756;9.192;2023-07-13T12:58:04;18.90;99.90
11540;DHT22;5826;54.756;9.192;2023-07-13T13:00:35;18.80;99.90
11540;DHT22;5826;54.756;9.192;2023-07-13T13:03:05;18.60;99.90
11540;DHT22;5826;54.756;9.192;2023-07-13T13:05:32;18.40;99.90
11540;DHT22;5826;54.756;9.192;2023-07-13T13:07:58;18.30;99.90
11540;DHT22;5826;54.756;9.192;2023-07-13T13:10:23;18.30;99.90
11540;DHT22;5826;54.756;9.192;2023-07-13T13:12:50;18.20;99.90
11540;DHT22;5826;54.756;9.192;2023-07-13T13:15:16;18.30;99.90
11540;DHT22;5826;54.756;9.192;2023-07-13T13:17:42;18.60;99.90
11540;DHT22;5826;54.756;9.192;2023-07-13T13:20:18;18.50;99.90
11540;DHT22;5826;54.756;9.192;2023-07-13T13:22:44;18.70;99.90
11540;DHT22;5826;54.756;9.192;2023-07-13T13:25:14;18.90;99.90
11540;DHT22;5826;54.756;9.192;2023-07-13T13:27:44;19.00;99.90
11540;DHT22;5826;54.756;9.192;2023-07-13T13:30:11;19.20;99.90
11540;DHT22;5826;54.756;9.192;2023-07-13T13:32:39;19.60;99.90
11540;DHT22;5826;54.756;9.192;2023-07-13T13:35:05;19.70;99.90
11540;DHT22;5826;54.756;9.192;2023-07-13T13:37:31;19.80;99.90
11540;DHT22;5826;54.756;9.192;2023-07-13T13:39:57;19.70;99.90
11540;DHT22;5826;54.756;9.192;2023-07-13T13:42:22;19.60;99.90
11540;DHT22;5826;54.756;9.192;2023-07-13T13:44:50;19.60;99.90
11540;DHT22;5826;54.756;9.192;2023-07-13T13:47:36;19.60;99.90
11540;DHT22;5826;54.756;9.192;2023-07-13T13:50:13;19.70;99.90
11540;DHT22;5826;54.756;9.192;2023-07-13T13:52:40;19.90;99.90
11540;DHT22;5826;54.756;9.192;2023-07-13T13:55:17;19.70;99.90
11540;DHT22;5826;54.756;9.192;2023-07-13T13:57:45;20.10;99.90
11540;DHT22;5826;54.756;9.192;2023-07-13T14:00:11;20.00;99.90
11540;DHT22;5826;54.756;9.192;2023-07-13T14:02:47;19.90;99.90
11540;DHT22;5826;54.756;9.192;2023-07-13T14:05:14;19.80;99.90
11540;DHT22;5826;54.756;9.192;2023-07-13T14:07:41;19.70;99.90
11540;DHT22;5826;54.756;9.192;2023-07-13T14:10:12;19.50;99.90
11540;DHT22;5826;54.756;9.192;2023-07-13T14:12:40;19.50;99.90
11540;DHT22;5826;54.756;9.192;2023-07-13T14:15:24;19.60;99.90
11540;DHT22;5826;54.756;9.192;2023-07-13T14:17:49;19.80;99.90
11540;DHT22;5826;54.756;9.192;2023-07-13T14:20:16;20.00;99.90
11540;DHT22;5826;54.756;9.192;2023-07-13T14:22:42;20.10;99.90
11540;DHT22;5826;54.756;9.192;2023-07-13T14:25:12;20.20;99.90
11540;DHT22;5826;54.756;9.192;2023-07-13T14:27:38;20.60;99.90
11540;DHT22;5826;54.756;9.192;2023-07-13T14:30:23;21.20;99.90
11540;DHT22;5826;54.756;9.192;2023-07-13T14:32:49;21.80;99.90
11540;DHT22;5826;54.756;9.192;2023-07-13T14:35:16;22.20;99.90
11540;DHT22;5826;54.756;9.192;2023-07-13T14:37:43;22.20;99.90
11540;DHT22;5826;54.756;9.192;2023-07-13T14:40:21;22.00;99.90
11540;DHT22;5826;54.756;9.192;2023-07-13T14:42:48;21.60;99.90
11540;DHT22;5826;54.756;9.192;2023-07-13T14:45:15;21.30;99.90
11540;DHT22;5826;54.756;9.192;2023-07-13T14:47:42;21.10;99.90
11540;DHT22;5826;54.756;9.192;2023-07-13T14:50:16;21.00;99.90
11540;DHT22;5826;54.756;9.192;2023-07-13T14:52:43;20.90;99.90
11540;DHT22;5826;54.756;9.192;2023-07-13T14:55:13;20.90;99.90
11540;DHT22;5826;54.756;9.192;2023-07-13T14:57:39;20.90;99.90
11540;DHT22;5826;54.756;9.192;2023-07-13T15:00:13;20.90;99.90
11540;DHT22;5826;54.756;9.192;2023-07-13T15:02:41;21.00;99.90
11540;DHT22;5826;54.756;9.192;2023-07-13T15:05:15;21.00;99.90
11540;DHT22;5826;54.756;9.192;2023-07-13T15:07:41;21.10;99.90
11540;DHT22;5826;54.756;9.192;2023-07-13T15:10:18;21.30;99.90
11540;DHT22;5826;54.756;9.192;2023-07-13T15:12:44;21.50;99.90
11540;DHT22;5826;54.756;9.192;2023-07-13T15:15:10;21.60;99.90
11540;DHT22;5826;54.756;9.192;2023-07-13T15:17:40;22.00;99.90
11540;DHT22;5826;54.756;9.192;2023-07-13T15:20:21;22.20;99.90
11540;DHT22;5826;54.756;9.192;2023-07-13T15:22:47;22.30;99.90
11540;DHT22;5826;54.756;9.192;2023-07-13T15:25:22;22.20;99.90
11540;DHT22;5826;54.756;9.192;2023-07-13T15:27:48;22.30;99.90
11540;DHT22;5826;54.756;9.192;2023-07-13T15:30:14;22.60;99.90
11540;DHT22;5826;54.756;9.192;2023-07-13T15:32:44;23.10;99.90
11540;DHT22;5826;54.756;9.192;2023-07-13T15:35:18;23.40;99.90
11540;DHT22;5826;54.756;9.192;2023-07-13T15:37:44;23.60;99.90
11540;DHT22;5826;54.756;9.192;2023-07-13T15:40:11;23.60;99.90
11540;DHT22;5826;54.756;9.192;2023-07-13T15:42:39;23.30;99.90
11540;DHT22;5826;54.756;9.192;2023-07-13T15:45:15;23.20;99.90
11540;DHT22;5826;54.756;9.192;2023-07-13T15:47:41;23.10;99.90
11540;DHT22;5826;54.756;9.192;2023-07-13T15:50:15;22.80;99.90
11540;DHT22;5826;54.756;9.192;2023-07-13T15:52:42;22.70;99.90
11540;DHT22;5826;54.756;9.192;2023-07-13T15:55:12;22.70;99.90
11540;DHT22;5826;54.756;9.192;2023-07-13T15:57:39;22.70;99.90
11540;DHT22;5826;54.756;9.192;2023-07-13T16:00:34;22.70;99.90
11540;DHT22;5826;54.756;9.192;2023-07-13T16:02:59;23.00;99.90
11540;DHT22;5826;54.756;9.192;2023-07-13T16:05:24;23.00;99.90
11540;DHT22;5826;54.756;9.192;2023-07-13T16:07:51;22.70;99.90
11540;DHT22;5826;54.756;9.192;2023-07-13T16:10:34;22.40;99.90
11540;DHT22;5826;54.756;9.192;2023-07-13T16:13:01;22.00;99.90
11540;DHT22;5826;54.756;9.192;2023-07-13T16:15:27;21.80;99.90
11540;DHT22;5826;54.756;9.192;2023-07-13T16:17:53;21.60;99.90
11540;DHT22;5826;54.756;9.192;2023-07-13T16:20:20;21.50;99.90
11540;DHT22;5826;54.756;9.192;2023-07-13T16:22:49;21.40;99.90